Terminal Aerodrome Forecast
Issued by NWS

Home | Current Version | Previous Version | Graphics & Text | Print | Product List | Glossary On
Versions: 1 2 3 4 5 6 7 8 9 10 11 12 13 14 15 16 17 18
000
FTUS43 KBIS 230500
TAFJMS
TAF
KJMS 230534Z 2306/2406 01012KT 1 1/2SM BR OVC003
      TEMPO 2306/2310 1SM -SN BR OVC002
     FM231000 36015KT 1SM -SN BR OVC003
     FM231500 36018G24KT 2SM -SN BLSN OVC004
     FM232100 33018KT P6SM OVC008
     FM240300 32008KT P6SM OVC015=

USA.gov is the U.S. government's official web portal to all federal, state and local government web resources and services.